Time;durP1;ratioP1;P1;durP2;ratioP2;P2;SDS_P1;SDS_P2;PMS_P1;PMS_P2;Temp;Humidity;BMP_temperature;BMP_pressure;BME280_temperature;BME280_humidity;BME280_pressure;Samples;Min_cycle;Max_cycle;Signal;HPM_P1;HPM_P2
2021/11/02 00:01:31;;;;;;;3.05;1.40;;;;;;;13.47;87.92;97448.34;5152246;27;20117;-91
2021/11/02 00:03:57;;;;;;;4.50;1.35;;;;;;;13.57;87.17;97449.50;5153799;27;20056;-94
2021/11/02 00:06:24;;;;;;;2.90;1.40;;;;;;;13.60;87.85;97446.66;5154695;27;20035;-92
2021/11/02 00:08:51;;;;;;;3.97;1.60;;;;;;;13.56;86.48;97447.78;5152281;27;20130;-93
2021/11/02 00:11:18;;;;;;;3.95;1.55;;;;;;;13.49;89.00;97438.44;5154263;27;20108;-95
2021/11/02 00:13:47;;;;;;;2.50;1.30;;;;;;;13.46;88.20;97454.63;5153594;27;20046;-94
2021/11/02 00:16:18;;;;;;;4.90;1.70;;;;;;;13.38;89.08;97459.56;5153336;27;20063;-93
2021/11/02 00:18:48;;;;;;;5.03;1.50;;;;;;;13.30;90.71;97460.88;5155587;27;20550;-90
2021/11/02 00:21:15;;;;;;;5.72;2.05;;;;;;;13.12;91.88;97452.13;5155952;27;20042;-92
2021/11/02 00:23:42;;;;;;;5.75;1.50;;;;;;;12.92;93.86;97449.72;5154061;27;20047;-91
2021/11/02 00:26:12;;;;;;;2.17;1.50;;;;;;;12.80;95.23;97456.66;5155533;27;20039;-93
2021/11/02 00:28:39;;;;;;;5.30;1.80;;;;;;;12.91;96.27;97486.25;5152669;27;20050;-92
2021/11/02 00:31:06;;;;;;;2.05;1.52;;;;;;;12.76;97.29;97478.25;5153766;27;20759;-91
2021/11/02 00:33:33;;;;;;;5.10;1.70;;;;;;;12.78;95.85;97493.22;5154975;27;20046;-93
2021/11/02 00:35:59;;;;;;;3.72;1.52;;;;;;;12.79;96.23;97494.94;5155787;27;20385;-93
2021/11/02 00:38:26;;;;;;;3.55;1.60;;;;;;;12.78;96.52;97479.03;5151685;27;20477;-92
2021/11/02 00:40:53;;;;;;;3.85;1.95;;;;;;;12.86;95.94;97488.31;5155355;27;20492;-92
2021/11/02 00:43:22;;;;;;;5.60;1.88;;;;;;;12.79;96.25;97480.72;5141085;27;20043;-93
2021/11/02 00:45:48;;;;;;;3.63;1.70;;;;;;;12.88;96.14;97496.22;5141394;27;20481;-91
2021/11/02 00:48:23;;;;;;;3.75;1.77;;;;;;;12.88;96.64;97505.09;5139847;27;20071;-93
2021/11/02 00:50:49;;;;;;;3.20;1.60;;;;;;;12.81;97.62;97492.19;5140665;27;20054;-92
2021/11/02 00:53:15;;;;;;;8.98;2.00;;;;;;;12.85;97.69;97499.91;5140137;27;20088;-92
2021/11/02 00:55:42;;;;;;;4.07;1.77;;;;;;;12.89;98.50;97511.28;5138892;27;20045;-94
2021/11/02 00:58:11;;;;;;;5.95;1.90;;;;;;;12.84;99.13;97506.22;5140175;27;20122;-93
2021/11/02 01:00:38;;;;;;;3.13;1.70;;;;;;;12.76;99.11;97492.44;5138417;27;20104;-93
2021/11/02 01:03:06;;;;;;;6.25;1.85;;;;;;;12.89;99.52;97521.97;5138594;27;20043;-93
2021/11/02 01:05:32;;;;;;;5.43;2.00;;;;;;;12.79;100.00;97504.75;5139492;27;20047;-93
2021/11/02 01:07:58;;;;;;;2.47;1.70;;;;;;;12.81;100.00;97516.19;5139138;27;20126;-94
2021/11/02 01:10:24;;;;;;;4.93;2.03;;;;;;;12.82;100.00;97515.25;5139197;27;20065;-93
2021/11/02 01:12:52;;;;;;;5.45;2.00;;;;;;;12.83;100.00;97511.63;5139894;27;20575;-94
2021/11/02 01:15:24;;;;;;;4.05;1.90;;;;;;;12.79;100.00;97510.06;5137262;27;20420;-93
2021/11/02 01:17:50;;;;;;;3.75;1.95;;;;;;;12.81;100.00;97519.72;5137804;27;20043;-93
2021/11/02 01:20:17;;;;;;;6.10;1.85;;;;;;;12.73;100.00;97501.47;5137931;27;20042;-91
2021/11/02 01:22:45;;;;;;;4.90;1.70;;;;;;;12.74;100.00;97507.66;5136916;27;20496;-93
2021/11/02 01:25:12;;;;;;;8.02;2.00;;;;;;;12.77;100.00;97506.63;5137733;27;20051;-93
2021/11/02 01:27:40;;;;;;;4.68;1.90;;;;;;;12.66;100.00;97492.09;5137918;27;20111;-93
2021/11/02 01:30:07;;;;;;;5.72;1.85;;;;;;;12.62;100.00;97503.91;5134995;27;20524;-93
2021/11/02 01:32:37;;;;;;;4.50;1.80;;;;;;;12.52;100.00;97492.00;5132279;27;20043;-94
2021/11/02 01:35:04;;;;;;;3.25;1.90;;;;;;;12.50;100.00;97494.75;5121075;27;20035;-92
2021/11/02 01:37:31;;;;;;;2.78;1.77;;;;;;;12.53;100.00;97510.59;5132009;27;20047;-93
2021/11/02 01:39:57;;;;;;;3.78;1.70;;;;;;;12.48;100.00;97501.13;5127220;27;20096;-94
2021/11/02 01:42:25;;;;;;;6.97;2.10;;;;;;;12.44;100.00;97496.91;5133043;27;20434;-93
2021/11/02 01:44:53;;;;;;;4.60;1.90;;;;;;;12.50;100.00;97508.09;5125972;27;20048;-95
2021/11/02 01:47:20;;;;;;;3.15;1.88;;;;;;;12.42;100.00;97504.13;5129029;27;20083;-94
2021/11/02 01:49:47;;;;;;;3.78;1.85;;;;;;;12.46;100.00;97513.69;5130007;27;20400;-93
2021/11/02 01:52:13;;;;;;;6.05;2.63;;;;;;;12.51;100.00;97522.28;5123377;27;20035;-92
2021/11/02 01:54:40;;;;;;;8.45;2.60;;;;;;;12.52;100.00;97527.53;5131628;27;20035;-95
2021/11/02 01:57:06;;;;;;;4.93;2.30;;;;;;;12.39;100.00;97506.97;5132977;27;20039;-94
2021/11/02 01:59:34;;;;;;;4.68;2.10;;;;;;;12.40;100.00;97522.00;5128609;27;20039;-94
2021/11/02 02:02:06;;;;;;;4.47;2.00;;;;;;;12.41;100.00;97535.25;5123823;27;20044;-93
2021/11/02 02:04:56;;;;;;;4.60;2.15;;;;;;;12.33;100.00;97527.66;5128745;27;20044;-94
2021/11/02 02:07:29;;;;;;;5.82;1.90;;;;;;;12.17;100.00;97515.28;5123320;27;20040;-94
2021/11/02 02:10:05;;;;;;;4.35;2.10;;;;;;;12.04;100.00;97518.56;5113509;27;20032;-93
2021/11/02 02:12:43;;;;;;;5.88;1.98;;;;;;;11.91;100.00;97514.84;5129522;27;20042;-93
2021/11/02 02:15:17;;;;;;;3.30;2.25;;;;;;;11.85;100.00;97517.78;5126318;27;20438;-94
2021/11/02 02:17:52;;;;;;;9.32;2.13;;;;;;;11.81;100.00;97526.88;5124317;27;20043;-94
2021/11/02 02:20:34;;;;;;;3.13;2.00;;;;;;;11.80;100.00;97531.34;5116441;28;20523;-94
2021/11/02 02:23:33;;;;;;;7.05;2.28;;;;;;;11.69;100.00;97525.72;5126839;27;20041;-94
2021/11/02 02:26:09;;;;;;;4.30;1.90;;;;;;;11.55;100.00;97509.59;5118171;27;20401;-92
2021/11/02 02:28:39;;;;;;;4.43;1.75;;;;;;;11.55;100.00;97522.88;5132730;27;20070;-93
2021/11/02 02:31:08;;;;;;;3.83;1.90;;;;;;;11.48;100.00;97512.56;5121870;27;20050;-92
2021/11/02 02:33:37;;;;;;;5.97;2.20;;;;;;;11.45;100.00;97526.03;5125781;27;20123;-94
2021/11/02 02:36:04;;;;;;;4.07;1.98;;;;;;;11.34;100.00;97503.53;5121540;27;20040;-94
2021/11/02 02:38:36;;;;;;;3.55;2.00;;;;;;;11.35;100.00;97530.09;5129409;27;20106;-92
2021/11/02 02:41:04;;;;;;;4.38;1.65;;;;;;;11.40;100.00;97517.41;5134173;27;20055;-93
2021/11/02 02:43:34;;;;;;;4.22;1.92;;;;;;;11.34;100.00;97522.16;5126646;27;20043;-93
2021/11/02 02:46:04;;;;;;;7.95;2.35;;;;;;;11.23;100.00;97534.22;5119915;27;20173;-93
2021/11/02 02:48:32;;;;;;;7.60;2.25;;;;;;;11.09;100.00;97526.06;5131413;27;20050;-92
2021/11/02 02:51:01;;;;;;;6.03;2.33;;;;;;;10.93;100.00;97519.75;5124767;27;20051;-93
2021/11/02 02:53:29;;;;;;;10.02;2.40;;;;;;;10.96;100.00;97547.06;5130429;27;20043;-95
2021/11/02 02:56:00;;;;;;;7.50;2.53;;;;;;;10.84;100.00;97529.03;5128388;27;20105;-93
2021/11/02 02:58:31;;;;;;;5.30;2.38;;;;;;;10.81;100.00;97530.03;5123527;27;20039;-93
2021/11/02 03:00:57;;;;;;;9.32;2.00;;;;;;;10.77;100.00;97516.97;5119796;27;20376;-94
2021/11/02 03:03:26;;;;;;;6.03;2.42;;;;;;;10.71;100.00;97511.94;5129026;27;20067;-94
2021/11/02 03:08:59;;;;;;;7.35;2.22;;;;;;;10.65;100.00;97516.63;5127771;27;20397;-92
2021/11/02 03:11:29;;;;;;;6.03;2.88;;;;;;;10.80;100.00;97536.31;5109364;28;20054;-92
2021/11/02 03:13:57;;;;;;;5.82;2.10;;;;;;;10.72;100.00;97551.75;5105648;28;20055;-90
2021/11/02 03:56:26;;;;;;;6.88;2.30;;;;;;;10.64;100.00;97593.78;5138455;27;20356;-95
2021/11/02 04:22:01;;;;;;;5.75;2.25;;;;;;;10.54;100.00;97611.09;5095143;27;20367;-93
2021/11/02 04:35:18;;;;;;;6.72;2.40;;;;;;;9.74;100.00;97620.75;5135661;27;20406;-92
2021/11/02 06:01:43;;;;;;;12.73;2.70;;;;;;;9.84;100.00;97690.22;5114730;27;20373;-93
2021/11/02 06:29:02;;;;;;;10.85;3.78;;;;;;;10.05;98.25;97694.66;5155715;27;20371;-93
2021/11/02 08:47:34;;;;;;;7.53;3.13;;;;;;;14.59;73.70;97829.31;5139683;27;20360;-94
2021/11/02 08:50:01;;;;;;;13.68;3.72;;;;;;;14.46;73.87;97823.78;5138075;27;20541;-93
2021/11/02 08:52:28;;;;;;;11.93;3.50;;;;;;;14.25;73.69;97819.69;5142740;28;20049;-96
2021/11/02 08:54:56;;;;;;;10.43;2.95;;;;;;;14.46;74.70;97818.44;5144725;27;20039;-94
2021/11/02 08:57:23;;;;;;;15.55;3.28;;;;;;;14.75;75.00;97837.34;5144716;27;20044;-95
2021/11/02 08:59:50;;;;;;;12.27;3.58;;;;;;;14.64;73.07;97821.91;5143928;27;20047;-94
2021/11/02 09:02:26;;;;;;;15.52;3.67;;;;;;;14.76;72.69;97829.19;5141595;27;20043;-93
2021/11/02 09:05:02;;;;;;;11.77;3.95;;;;;;;14.84;72.20;97820.72;5143449;27;20100;-94
2021/11/02 09:07:30;;;;;;;11.43;2.72;;;;;;;15.01;71.34;97846.50;5141744;27;20040;-95
2021/11/02 09:10:00;;;;;;;9.73;3.55;;;;;;;14.82;73.31;97821.78;5144359;27;20111;-95
2021/11/02 09:12:31;;;;;;;10.43;3.05;;;;;;;14.97;72.90;97815.50;5144326;27;20054;-93
2021/11/02 09:15:02;;;;;;;10.05;3.00;;;;;;;15.25;72.67;97822.72;5144720;27;20500;-94
2021/11/02 09:17:31;;;;;;;14.50;3.33;;;;;;;15.24;72.47;97809.41;5143688;27;20047;-95
2021/11/02 09:20:08;;;;;;;16.95;4.97;;;;;;;15.30;72.65;97814.41;5143662;27;20040;-95
2021/11/02 09:22:37;;;;;;;11.63;3.03;;;;;;;15.35;71.14;97813.19;5141224;27;20019;-94
2021/11/02 09:25:03;;;;;;;;;;;;;;;15.72;70.85;97832.34;5140165;27;20039;-94
2021/11/02 09:27:29;;;;;;;7.38;3.20;;;;;;;15.67;71.27;97804.91;5137628;27;19920;-94
2021/11/02 09:30:01;;;;;;;15.93;3.78;;;;;;;15.84;70.51;97797.69;5137796;27;20047;-93
2021/11/02 09:32:27;;;;;;;10.45;3.00;;;;;;;15.97;71.01;97817.38;5138516;27;20145;-93
2021/11/02 09:34:55;;;;;;;12.18;3.00;;;;;;;15.89;69.34;97804.44;5134670;27;20036;-94
2021/11/02 09:37:32;;;;;;;11.52;2.70;;;;;;;15.87;70.79;97795.63;5129114;28;20035;-95
2021/11/02 09:40:15;;;;;;;17.85;4.15;;;;;;;16.25;69.37;97802.19;5138063;27;20040;-94
2021/11/02 09:43:15;;;;;;;8.27;2.75;;;;;;;16.31;69.30;97828.56;5137205;27;20043;-94
2021/11/02 09:46:32;;;;;;;14.07;3.80;;;;;;;16.15;69.39;97792.03;5121389;28;20047;-96
2021/11/02 09:49:43;;;;;;;11.98;3.05;;;;;;;16.16;66.97;97795.59;5141347;28;20039;-96
2021/11/02 09:52:53;;;;;;;11.63;3.03;;;;;;;16.70;66.51;97813.47;5118591;27;20040;-94
2021/11/02 09:56:15;;;;;;;11.00;2.80;;;;;;;16.26;66.89;97799.38;5079886;27;20048;-94
2021/11/02 09:59:20;;;;;;;13.80;2.88;;;;;;;16.57;67.26;97817.00;5082472;28;20036;-95
2021/11/02 10:02:49;;;;;;;10.07;3.25;;;;;;;16.94;66.99;97811.88;5068714;28;20445;-95
2021/11/02 10:05:30;;;;;;;10.40;2.50;;;;;;;16.46;66.31;97797.19;5062180;28;20132;-95
2021/11/02 10:08:21;;;;;;;12.15;3.28;;;;;;;16.46;67.72;97814.19;5064654;28;20043;-94
2021/11/02 10:11:01;;;;;;;9.98;3.00;;;;;;;16.20;69.09;97806.03;5080899;28;20123;-94
2021/11/02 10:13:48;;;;;;;12.90;3.20;;;;;;;15.95;69.99;97792.47;5080507;28;20056;-95
2021/11/02 10:16:40;;;;;;;10.60;3.00;;;;;;;15.85;71.50;97797.56;5080625;28;20072;-95
2021/11/02 10:19:47;;;;;;;15.43;3.03;;;;;;;15.44;71.38;97801.03;5075025;28;20044;-95
2021/11/02 10:22:53;;;;;;;13.07;3.95;;;;;;;15.40;72.59;97808.38;5025519;28;20507;-96
2021/11/02 10:25:59;;;;;;;12.52;3.15;;;;;;;15.46;73.11;97796.44;5010578;28;20046;-94
2021/11/02 10:29:12;;;;;;;8.85;2.88;;;;;;;15.79;72.30;97830.13;4943576;28;20052;-94
2021/11/02 10:32:07;;;;;;;9.07;3.05;;;;;;;15.87;70.05;97808.19;4922882;29;20051;-95
2021/11/02 10:35:14;;;;;;;;;;;;;;;;;;;;;
2021/11/02 10:38:11;;;;;;;8.02;2.13;;;;;;;15.96;61.18;97810.28;4974870;28;20086;-95
2021/11/02 10:40:45;;;;;;;8.13;2.28;;;;;;;15.77;61.54;97806.09;4980832;28;20043;-94
2021/11/02 10:43:33;;;;;;;6.30;2.13;;;;;;;15.90;60.71;97827.63;4981376;28;20042;-93
2021/11/02 10:46:03;;;;;;;5.55;1.98;;;;;;;16.13;58.84;97822.59;4980644;28;20500;-94
2021/11/02 10:48:40;;;;;;;6.60;2.20;;;;;;;16.19;56.33;97817.69;4984530;28;20069;-94
2021/11/02 10:51:38;;;;;;;9.35;1.83;;;;;;;16.40;55.64;97819.94;4988226;28;20073;-96
2021/11/02 10:54:21;;;;;;;10.80;2.50;;;;;;;16.72;54.86;97811.56;4967847;28;20541;-93
2021/11/02 10:57:15;;;;;;;9.90;2.13;;;;;;;16.99;56.91;97793.59;4975115;28;20051;-96
2021/11/02 10:59:49;;;;;;;7.07;1.92;;;;;;;17.33;56.04;97783.22;5026220;28;20045;-95
2021/11/02 11:02:24;;;;;;;7.97;2.10;;;;;;;17.39;54.33;97798.91;5024123;28;20133;-95
2021/11/02 11:04:55;;;;;;;9.95;3.40;;;;;;;17.45;54.21;97814.56;5053371;28;20101;-95
2021/11/02 11:07:26;;;;;;;6.68;2.55;;;;;;;17.38;52.83;97793.63;5121964;28;20108;-94
2021/11/02 11:09:54;;;;;;;8.90;2.20;;;;;;;17.65;50.64;97796.16;5120280;28;20048;-96
2021/11/02 11:12:21;;;;;;;10.60;2.10;;;;;;;17.77;53.02;97781.84;5124288;28;20407;-95
2021/11/02 11:18:22;;;;;;;7.85;2.40;;;;;;;18.19;49.45;97806.63;5120846;28;20039;-95
2021/11/02 11:25:37;;;;;;;5.78;2.50;;;;;;;18.73;48.50;97797.22;5000144;28;20087;-95
2021/11/02 11:28:12;;;;;;;9.55;3.17;;;;;;;18.54;47.89;97770.88;5057816;28;20067;-96
2021/11/02 11:30:39;;;;;;;5.55;2.33;;;;;;;18.51;52.46;97768.38;5062829;28;20045;-96
2021/11/02 11:33:09;;;;;;;7.60;2.00;;;;;;;18.24;45.34;97760.56;5062168;28;20492;-94
2021/11/02 11:35:36;;;;;;;4.85;1.75;;;;;;;18.25;43.59;97786.50;5061503;28;20135;-95
2021/11/02 11:38:04;;;;;;;4.15;1.65;;;;;;;17.93;44.53;97768.19;5061762;28;20120;-95
2021/11/02 11:40:34;;;;;;;4.43;1.70;;;;;;;18.02;42.47;97766.66;5063401;28;20110;-95
2021/11/02 11:43:02;;;;;;;2.90;1.33;;;;;;;18.00;42.64;97745.25;5124966;28;20036;-94
2021/11/02 11:45:36;;;;;;;5.35;1.70;;;;;;;18.09;43.00;97772.47;5127044;27;20048;-95
2021/11/02 11:48:05;;;;;;;3.80;1.55;;;;;;;17.81;41.10;97748.41;5125263;28;20040;-95
2021/11/02 11:50:40;;;;;;;5.13;1.40;;;;;;;17.83;41.58;97770.69;5123654;28;20067;-94
2021/11/02 11:53:17;;;;;;;5.05;1.60;;;;;;;17.71;41.34;97762.63;5123024;28;20044;-96
2021/11/02 11:56:01;;;;;;;5.45;1.40;;;;;;;17.98;42.08;97798.31;5128124;27;20049;-94
2021/11/02 11:58:27;;;;;;;6.03;1.60;;;;;;;17.96;41.82;97794.88;5130226;27;20048;-95
2021/11/02 12:01:08;;;;;;;5.72;2.20;;;;;;;17.84;41.92;97793.06;5131588;27;20046;-96
2021/11/02 12:04:16;;;;;;;8.63;2.00;;;;;;;17.84;42.29;97780.47;5148705;27;20391;-95
2021/11/02 12:07:22;;;;;;;5.68;1.60;;;;;;;17.98;45.60;97784.00;5121193;28;20047;-95
2021/11/02 12:10:06;;;;;;;5.95;1.90;;;;;;;17.93;43.63;97770.03;5123869;28;20066;-95
2021/11/02 12:12:39;;;;;;;6.85;1.83;;;;;;;17.98;44.51;97760.66;5124098;28;20071;-95
2021/11/02 12:15:09;;;;;;;6.35;1.77;;;;;;;18.06;44.36;97758.25;5123102;28;20040;-96
2021/11/02 12:17:40;;;;;;;4.90;1.80;;;;;;;18.29;44.89;97779.91;5136293;27;20031;-94
2021/11/02 12:20:11;;;;;;;10.13;2.20;;;;;;;18.26;45.91;97790.91;5144161;27;20396;-93
2021/11/02 12:22:46;;;;;;;7.93;1.88;;;;;;;18.13;45.57;97761.34;5124783;28;20073;-95
2021/11/02 12:25:19;;;;;;;9.50;2.03;;;;;;;18.09;45.83;97761.69;5134264;27;20036;-94
2021/11/02 12:27:46;;;;;;;7.80;2.05;;;;;;;17.98;45.50;97767.88;5107326;28;20029;-95
2021/11/02 12:30:19;;;;;;;8.57;1.95;;;;;;;17.78;45.62;97758.50;5109859;28;20040;-95
2021/11/02 12:35:57;;;;;;;7.60;2.00;;;;;;;17.66;45.20;97750.38;5145330;27;20124;-96
2021/11/02 12:38:34;;;;;;;8.02;1.67;;;;;;;17.78;46.13;97756.69;5143428;27;20051;-96
2021/11/02 12:41:01;;;;;;;6.78;2.10;;;;;;;17.74;45.52;97747.13;5141342;28;20504;-94
2021/11/02 12:43:28;;;;;;;7.35;1.80;;;;;;;17.73;47.40;97748.09;5141283;27;20529;-96
2021/11/02 12:45:56;;;;;;;11.73;1.85;;;;;;;17.60;45.92;97766.09;5141216;27;20126;-94
2021/11/02 12:48:24;;;;;;;10.77;2.63;;;;;;;17.51;46.71;97758.69;5140322;27;20096;-93
2021/11/02 12:50:51;;;;;;;11.43;1.92;;;;;;;17.67;46.80;97751.22;5140418;27;20047;-96
2021/11/02 12:53:23;;;;;;;9.15;2.00;;;;;;;17.50;46.70;97752.47;5137303;27;20074;-95
2021/11/02 12:55:50;;;;;;;10.07;2.00;;;;;;;17.48;47.08;97749.03;5139776;27;20051;-94
2021/11/02 12:58:20;;;;;;;7.75;1.70;;;;;;;17.49;48.78;97749.88;5140608;27;20047;-95
2021/11/02 13:03:54;;;;;;;7.40;1.92;;;;;;;17.04;49.86;97742.25;5141076;27;20574;-96
2021/11/02 13:06:23;;;;;;;5.75;2.00;;;;;;;17.11;49.54;97743.56;5123303;28;20052;-96
2021/11/02 13:08:59;;;;;;;8.80;2.10;;;;;;;17.11;49.69;97738.19;5122676;28;20063;-96
2021/11/02 13:11:34;;;;;;;7.00;2.17;;;;;;;17.19;50.66;97740.31;5120032;28;20044;-96
2021/11/02 13:14:07;;;;;;;9.18;2.55;;;;;;;17.20;49.93;97742.91;5124012;27;20401;-96
2021/11/02 13:16:53;;;;;;;8.98;2.05;;;;;;;17.40;49.92;97773.72;5121672;28;20069;-96
2021/11/02 13:19:23;;;;;;;7.88;2.05;;;;;;;17.24;50.51;97740.88;5121385;28;20388;-96
2021/11/02 13:21:50;;;;;;;8.48;1.90;;;;;;;17.23;50.51;97737.31;5123985;28;20485;-94
2021/11/02 13:24:20;;;;;;;10.75;2.10;;;;;;;17.26;50.11;97744.28;5119389;28;20497;-95
2021/11/02 13:26:48;;;;;;;9.00;2.72;;;;;;;17.08;49.88;97770.63;5122493;27;20122;-95
2021/11/02 13:29:16;;;;;;;11.07;2.28;;;;;;;16.78;49.94;97744.88;5121054;28;20497;-94
2021/11/02 13:31:44;;;;;;;7.57;1.80;;;;;;;16.75;51.96;97757.66;5121570;28;20048;-95
2021/11/02 13:34:12;;;;;;;9.13;2.27;;;;;;;16.75;51.33;97757.66;5119984;28;20070;-93
2021/11/02 13:36:41;;;;;;;6.80;2.10;;;;;;;16.57;50.93;97739.16;5121311;28;20284;-96
2021/11/02 13:39:08;;;;;;;13.67;2.10;;;;;;;16.45;52.74;97761.47;5119206;28;20367;-96
2021/11/02 13:41:35;;;;;;;9.43;2.05;;;;;;;16.40;55.34;97767.13;5118428;27;20044;-95
2021/11/02 13:47:14;;;;;;;8.90;2.25;;;;;;;16.29;52.67;97763.47;5164146;27;20750;-95
2021/11/02 13:49:40;;;;;;;7.40;1.95;;;;;;;16.38;52.89;97744.06;5160775;27;20047;-95
2021/11/02 13:52:10;;;;;;;14.63;2.70;;;;;;;16.36;54.13;97754.03;5161846;27;20078;-95
2021/11/02 13:54:37;;;;;;;12.45;2.15;;;;;;;16.27;54.30;97743.94;5161967;27;20050;-96
2021/11/02 13:57:05;;;;;;;13.15;2.30;;;;;;;16.51;52.95;97749.47;5162524;27;20392;-95
2021/11/02 13:59:31;;;;;;;5.65;1.80;;;;;;;16.54;52.25;97746.56;5163784;27;20088;-94
2021/11/02 14:02:00;;;;;;;9.15;2.05;;;;;;;16.75;52.20;97773.78;5162747;27;20070;-94
2021/11/02 14:04:33;;;;;;;14.52;2.85;;;;;;;16.61;53.11;97769.31;5163024;27;20068;-95
2021/11/02 14:07:07;;;;;;;8.10;2.30;;;;;;;16.33;52.87;97754.22;5167936;27;20039;-96
2021/11/02 14:09:38;;;;;;;11.77;2.67;;;;;;;16.42;53.37;97775.09;5167234;27;20509;-95
2021/11/02 14:15:39;;;;;;;10.90;3.35;;;;;;;16.31;53.71;97748.97;5168947;27;20051;-96
2021/11/02 14:18:10;;;;;;;8.40;2.28;;;;;;;16.33;55.54;97755.09;5168311;27;20488;-95
2021/11/02 14:20:41;;;;;;;7.53;2.90;;;;;;;16.45;53.38;97750.72;5168083;27;20058;-95
2021/11/02 14:23:10;;;;;;;8.27;2.33;;;;;;;16.61;53.13;97755.91;5167562;27;20039;-96
2021/11/02 14:25:39;;;;;;;10.45;2.30;;;;;;;16.66;54.82;97758.31;5170048;27;20070;-96
2021/11/02 14:28:06;;;;;;;10.90;3.55;;;;;;;16.58;54.81;97743.56;5168351;27;20050;-95
2021/11/02 14:30:40;;;;;;;9.32;2.22;;;;;;;16.53;54.60;97740.34;5168886;27;20042;-95
2021/11/02 14:33:08;;;;;;;8.55;2.17;;;;;;;16.81;54.37;97776.09;5166919;27;20046;-96
2021/11/02 14:36:01;;;;;;;7.15;2.67;;;;;;;16.67;53.59;97744.75;5168673;27;20062;-95
2021/11/02 14:38:44;;;;;;;6.40;2.17;;;;;;;16.68;53.75;97748.31;5168543;27;20043;-94
2021/11/02 14:44:50;;;;;;;12.13;2.85;;;;;;;16.43;54.84;97756.19;5172041;27;20218;-96
2021/11/02 14:47:33;;;;;;;9.02;2.85;;;;;;;16.27;57.87;97768.06;5149495;28;20039;-96
2021/11/02 14:50:00;;;;;;;7.32;2.70;;;;;;;16.05;58.23;97768.59;5149871;28;20039;-96
2021/11/02 14:52:27;;;;;;;8.77;3.00;;;;;;;15.92;59.13;97772.09;5147797;28;20043;-96
2021/11/02 14:54:58;;;;;;;;;;;;;;;15.97;60.13;97802.13;5148232;28;20047;-96
2021/11/02 14:57:52;;;;;;;10.95;3.20;;;;;;;15.68;61.19;97762.91;5148867;28;19919;-96
2021/11/02 15:00:41;;;;;;;11.98;3.40;;;;;;;15.80;60.86;97788.97;5148650;28;20113;-96
2021/11/02 15:03:20;;;;;;;;;;;;;;;15.93;61.32;97797.06;5147204;28;20107;-95
2021/11/02 15:05:46;;;;;;;11.55;3.55;;;;;;;15.88;59.57;97767.88;5149063;28;19930;-96
2021/11/02 15:08:18;;;;;;;12.05;3.78;;;;;;;16.10;58.30;97761.13;5146996;28;20039;-96
2021/11/02 15:10:47;;;;;;;17.17;4.00;;;;;;;16.39;57.36;97773.47;5149728;28;20035;-95
2021/11/02 15:20:23;;;;;;;14.18;3.25;;;;;;;16.28;58.90;97780.50;5109153;28;20067;-96
2021/11/02 15:23:23;;;;;;;14.45;4.30;;;;;;;15.92;59.79;97760.50;5106648;28;20024;-96
2021/11/02 15:25:56;;;;;;;9.20;3.75;;;;;;;15.86;60.46;97793.94;5109222;28;20113;-96
2021/11/02 15:35:04;;;;;;;9.40;4.43;;;;;;;15.07;63.81;97759.56;5100193;28;20034;-96
2021/11/02 15:37:43;;;;;;;12.77;4.15;;;;;;;15.12;62.94;97784.25;5108334;28;20032;-96
2021/11/02 15:40:16;;;;;;;10.75;2.83;;;;;;;15.22;59.29;97758.63;5107118;28;20037;-96
2021/11/02 15:43:26;;;;;;;9.25;2.40;;;;;;;15.40;60.45;97772.69;5105338;28;20068;-95
2021/11/02 15:49:24;;;;;;;9.02;3.40;;;;;;;15.40;63.09;97768.19;5108661;28;20070;-96
2021/11/02 15:51:58;;;;;;;15.63;4.15;;;;;;;15.41;62.90;97767.22;5108617;28;20104;-96
2021/11/02 15:54:46;;;;;;;9.57;3.78;;;;;;;15.38;64.18;97770.13;5085831;22;20041;-96
2021/11/02 15:57:19;;;;;;;11.05;3.80;;;;;;;15.44;66.07;97802.81;5054050;28;20054;-96
2021/11/02 15:59:59;;;;;;;8.50;3.38;;;;;;;15.37;66.95;97792.47;5051889;28;20045;-96
2021/11/02 16:02:38;;;;;;;9.07;3.40;;;;;;;15.33;67.92;97787.41;5054825;28;20033;-95
2021/11/02 16:05:06;;;;;;;;;;;;;;;15.48;68.33;97825.78;5052667;28;20128;-96
2021/11/02 16:07:34;;;;;;;15.95;4.63;;;;;;;15.21;69.04;97791.72;5052840;28;19928;-95
2021/11/02 16:10:06;;;;;;;8.57;4.30;;;;;;;15.38;68.97;97818.31;5052179;28;20133;-96
2021/11/02 16:12:36;;;;;;;12.95;3.60;;;;;;;15.19;68.34;97791.81;5079290;22;20033;-96
2021/11/02 16:15:14;;;;;;;9.98;3.80;;;;;;;15.21;67.57;97810.47;5076102;28;20048;-94
2021/11/02 16:17:49;;;;;;;8.27;4.32;;;;;;;15.14;66.48;97793.06;5075064;28;20084;-96
2021/11/02 16:20:39;;;;;;;9.43;3.42;;;;;;;15.20;65.28;97819.44;5073532;28;20045;-95
2021/11/02 16:23:14;;;;;;;8.75;3.55;;;;;;;15.13;65.16;97812.75;5072508;28;20088;-96
2021/11/02 16:26:11;;;;;;;11.85;4.25;;;;;;;15.08;65.00;97815.72;5075735;28;20045;-96
2021/11/02 16:29:06;;;;;;;11.30;3.67;;;;;;;15.11;65.36;97834.25;5074130;28;20035;-96
2021/11/02 16:31:33;;;;;;;8.93;2.75;;;;;;;15.00;64.53;97834.03;5073868;28;20063;-96
2021/11/02 16:34:21;;;;;;;9.13;3.13;;;;;;;15.15;64.60;97869.75;5072207;28;20057;-96
2021/11/02 16:36:48;;;;;;;12.57;3.50;;;;;;;14.87;64.95;97846.44;5074301;28;20045;-96
2021/11/02 16:55:45;;;;;;;9.80;2.20;;;;;;;14.52;67.28;97892.13;5738480;22;15108405;-96
2021/11/02 16:58:46;;;;;;;6.70;2.90;;;;;;;14.55;67.67;97916.94;6401731;22;20260;-95
2021/11/02 17:01:16;;;;;;;5.95;2.75;;;;;;;14.48;68.35;97922.69;6404738;22;20382;-94
2021/11/02 17:03:48;;;;;;;7.07;3.20;;;;;;;14.18;69.19;97892.25;6401926;22;20018;-95
2021/11/02 17:06:18;;;;;;;10.82;3.47;;;;;;;14.24;69.02;97899.03;6396785;22;20006;-95
2021/11/02 17:09:08;;;;;;;11.65;3.10;;;;;;;14.23;69.01;97901.81;6393893;22;20014;-95
2021/11/02 17:11:45;;;;;;;8.43;3.15;;;;;;;14.18;69.21;97905.63;6365445;22;20063;-96
2021/11/02 17:14:15;;;;;;;10.10;3.45;;;;;;;14.09;70.28;97906.09;6360492;22;20010;-93
2021/11/02 17:16:45;;;;;;;7.30;2.72;;;;;;;14.03;71.72;97918.94;6358021;22;20022;-92
2021/11/02 17:19:11;;;;;;;8.63;2.78;;;;;;;13.98;72.80;97938.75;6360385;22;20015;-95
2021/11/02 17:21:38;;;;;;;9.45;3.15;;;;;;;13.66;73.54;97908.47;6360665;22;20015;-94
2021/11/02 17:24:07;;;;;;;12.77;4.05;;;;;;;13.59;73.96;97932.88;6365235;22;20321;-93
2021/11/02 17:26:36;;;;;;;17.23;10.18;;;;;;;13.58;74.15;97925.84;6359721;22;20011;-95
2021/11/02 17:29:05;;;;;;;18.33;9.43;;;;;;;13.39;74.98;97929.44;6359943;22;20011;-95
2021/11/02 17:34:42;;;;;;;13.55;6.78;;;;;;;13.22;75.84;97956.97;5107468;27;20710;-95
2021/11/02 17:37:09;;;;;;;15.65;7.90;;;;;;;13.08;76.88;97962.19;5106336;28;20138;-95
2021/11/02 17:39:37;;;;;;;22.27;9.60;;;;;;;12.73;79.18;97954.97;5106902;28;20048;-96
2021/11/02 17:42:05;;;;;;;20.83;9.27;;;;;;;12.51;79.92;97943.59;5104824;28;20070;-95
2021/11/02 17:44:32;;;;;;;17.87;8.30;;;;;;;12.41;80.40;97961.84;5103931;28;20044;-95
2021/11/02 17:47:00;;;;;;;15.80;7.85;;;;;;;12.19;81.42;97954.00;5103058;28;20413;-94
2021/11/02 17:49:27;;;;;;;18.13;7.65;;;;;;;12.09;81.65;97958.88;5101668;28;20085;-95
2021/11/02 17:51:57;;;;;;;19.40;8.02;;;;;;;12.01;82.81;97971.69;5102880;28;20040;-93
2021/11/02 17:54:25;;;;;;;16.88;7.97;;;;;;;11.84;83.14;97967.13;5102181;28;20046;-96
2021/11/02 17:56:53;;;;;;;18.73;10.18;;;;;;;11.84;83.66;97972.44;5101634;28;20048;-95
2021/11/02 17:59:21;;;;;;;36.30;11.60;;;;;;;11.83;82.80;97977.81;5100718;28;20508;-94
2021/11/02 18:01:48;;;;;;;22.00;11.73;;;;;;;11.80;83.61;97975.31;5097760;28;20070;-94
2021/11/02 18:04:15;;;;;;;16.88;10.30;;;;;;;11.79;83.69;97982.41;5100315;28;20199;-95
2021/11/02 18:06:42;;;;;;;20.83;9.82;;;;;;;11.74;83.75;97975.59;5101911;28;20051;-93
2021/11/02 18:09:12;;;;;;;18.92;9.90;;;;;;;11.74;84.78;98000.41;5099570;28;20102;-95
2021/11/02 18:11:38;;;;;;;18.95;8.68;;;;;;;11.62;85.26;97996.47;5096379;28;20048;-94
2021/11/02 18:14:05;;;;;;;16.13;8.73;;;;;;;11.70;85.88;98026.31;5102627;28;20188;-94
2021/11/02 18:16:32;;;;;;;17.23;8.45;;;;;;;11.53;86.09;98004.88;5097022;28;20048;-95
2021/11/02 18:19:02;;;;;;;20.52;8.40;;;;;;;11.48;86.08;98001.53;5098213;28;20098;-95
2021/11/02 18:21:29;;;;;;;28.92;12.13;;;;;;;11.57;86.32;98021.59;5103429;28;20040;-96
2021/11/02 18:23:56;;;;;;;38.25;20.08;;;;;;;11.45;86.08;98009.66;5101697;28;20044;-95
2021/11/02 18:26:23;;;;;;;84.47;34.55;;;;;;;11.56;85.89;98031.38;5101538;28;20045;-96